createdAt,value
2022-09-23T00:00:54.088Z,55.38
2022-09-23T00:01:54.138Z,55.38
2022-09-23T00:02:54.169Z,55.38
2022-09-23T00:03:54.125Z,55.38
2022-09-23T00:04:54.136Z,55.48
2022-09-23T00:05:54.156Z,55.48
2022-09-23T00:06:54.148Z,55.48
2022-09-23T00:07:54.176Z,55.38
2022-09-23T00:08:54.190Z,55.38
2022-09-23T00:09:54.225Z,55.35
2022-09-23T00:10:54.250Z,55.38
2022-09-23T00:11:54.261Z,55.38
2022-09-23T00:12:54.315Z,55.38
2022-09-23T00:13:54.287Z,55.38
2022-09-23T00:14:54.300Z,55.48
2022-09-23T00:15:54.341Z,55.48
2022-09-23T00:16:54.429Z,55.48
2022-09-23T00:17:54.356Z,55.48
2022-09-23T00:18:54.334Z,55.48
2022-09-23T00:19:54.358Z,55.48
2022-09-23T00:20:54.406Z,55.48
2022-09-23T00:21:54.393Z,55.48
2022-09-23T00:22:54.398Z,55.58
2022-09-23T00:23:54.449Z,55.58
2022-09-23T00:24:54.435Z,55.48
2022-09-23T00:25:54.463Z,55.48
2022-09-23T00:26:54.483Z,55.48
2022-09-23T00:27:54.518Z,55.48
2022-09-23T00:28:54.542Z,55.38
2022-09-23T00:29:54.526Z,55.38
2022-09-23T00:30:54.581Z,55.48
2022-09-23T00:31:54.584Z,55.48
2022-09-23T00:32:54.606Z,55.48
2022-09-23T00:33:54.635Z,55.58
2022-09-23T00:34:54.606Z,55.58
2022-09-23T00:35:54.633Z,55.58
2022-09-23T00:36:54.652Z,55.48
2022-09-23T00:37:54.699Z,55.48
2022-09-23T00:38:54.718Z,55.48
2022-09-23T00:39:54.711Z,55.48
2022-09-23T00:40:54.718Z,55.48
2022-09-23T00:41:54.751Z,55.38
2022-09-23T00:42:54.772Z,55.48
2022-09-23T00:43:54.801Z,55.48
2022-09-23T00:44:54.785Z,55.48
2022-09-23T00:45:54.868Z,55.58
2022-09-23T00:46:54.870Z,55.48
2022-09-23T00:47:54.835Z,55.48
2022-09-23T00:48:54.863Z,55.58
2022-09-23T00:49:54.872Z,55.58
2022-09-23T00:50:54.879Z,55.58
2022-09-23T00:51:54.948Z,55.58
2022-09-23T00:52:54.916Z,55.58
2022-09-23T00:53:54.979Z,55.58
2022-09-23T00:54:54.938Z,55.58
2022-09-23T00:55:54.975Z,55.58
2022-09-23T00:56:54.989Z,55.58
2022-09-23T00:57:55.014Z,55.58
2022-09-23T00:58:55.057Z,55.58
2022-09-23T00:59:55.036Z,55.58
2022-09-23T01:00:55.108Z,55.58
2022-09-23T01:01:55.093Z,55.48
2022-09-23T01:02:55.091Z,55.48
2022-09-23T01:03:55.136Z,55.58
2022-09-23T01:04:55.116Z,55.58
2022-09-23T01:05:55.106Z,55.58
2022-09-23T01:06:55.116Z,55.58
2022-09-23T01:07:55.137Z,55.58
2022-09-23T01:08:55.165Z,55.58
2022-09-23T01:09:55.195Z,55.58
2022-09-23T01:10:55.197Z,55.58
2022-09-23T01:11:55.214Z,55.68
2022-09-23T01:12:55.177Z,55.58
2022-09-23T01:13:55.204Z,55.58
2022-09-23T01:14:55.221Z,55.58
2022-09-23T01:15:55.271Z,55.58
2022-09-23T01:16:55.276Z,55.58
2022-09-23T01:17:55.242Z,55.58
2022-09-23T01:18:55.250Z,55.58
2022-09-23T01:19:55.267Z,55.58
2022-09-23T01:20:55.335Z,55.48
2022-09-23T01:21:55.286Z,55.58
2022-09-23T01:22:55.284Z,55.58
2022-09-23T01:23:55.310Z,55.48
2022-09-23T01:24:55.305Z,55.48
2022-09-23T01:25:55.378Z,55.58
2022-09-23T01:26:55.350Z,55.58
2022-09-23T01:27:55.319Z,55.58
2022-09-23T01:28:55.340Z,55.58
2022-09-23T01:29:55.368Z,55.48
2022-09-23T01:30:55.493Z,55.58
2022-09-23T01:31:55.429Z,55.58
2022-09-23T01:32:55.441Z,55.48
2022-09-23T01:33:55.417Z,55.58
2022-09-23T01:34:55.436Z,55.48
2022-09-23T01:35:55.466Z,55.48
2022-09-23T01:36:55.478Z,55.48
2022-09-23T01:37:56.034Z,55.48
2022-09-23T01:38:55.498Z,55.58
2022-09-23T01:39:55.501Z,55.48
2022-09-23T01:40:55.509Z,55.48
2022-09-23T01:41:55.556Z,55.58
2022-09-23T01:42:55.561Z,55.48
2022-09-23T01:43:55.576Z,55.48
2022-09-23T01:44:55.620Z,55.48
2022-09-23T01:45:55.635Z,55.48
2022-09-23T01:46:55.652Z,55.48
2022-09-23T01:47:55.984Z,55.48
2022-09-23T01:48:55.679Z,55.48
2022-09-23T01:49:55.693Z,55.48
2022-09-23T01:50:55.722Z,55.58
2022-09-23T01:51:55.741Z,55.58
2022-09-23T01:52:55.768Z,55.48
2022-09-23T01:53:55.795Z,55.48
2022-09-23T01:54:55.822Z,55.58
2022-09-23T01:55:55.841Z,55.58
2022-09-23T01:56:55.855Z,55.58
2022-09-23T01:57:55.920Z,55.58
2022-09-23T01:58:55.863Z,55.48
2022-09-23T01:59:55.887Z,55.48
2022-09-23T02:00:55.940Z,55.58
2022-09-23T02:01:56.034Z,55.51
2022-09-23T02:02:55.896Z,55.58
2022-09-23T02:03:56.098Z,55.51
2022-09-23T02:04:55.867Z,55.58
2022-09-23T02:05:55.913Z,55.51
2022-09-23T02:06:55.924Z,55.61
2022-09-23T02:07:55.952Z,55.61
2022-09-23T02:08:55.969Z,55.71
2022-09-23T02:09:55.958Z,55.71
2022-09-23T02:10:56.000Z,55.61
2022-09-23T02:11:58.686Z,55.61
2022-09-23T02:12:56.051Z,55.61
2022-09-23T02:13:56.047Z,55.61
2022-09-23T02:14:56.056Z,55.71
2022-09-23T02:15:56.051Z,55.61
2022-09-23T02:16:56.199Z,55.71
2022-09-23T02:17:56.114Z,55.61
2022-09-23T02:18:56.106Z,55.71
2022-09-23T02:19:56.120Z,55.71
2022-09-23T02:20:56.141Z,55.71
2022-09-23T02:21:56.172Z,55.71
2022-09-23T02:22:56.190Z,55.71
2022-09-23T02:23:56.231Z,55.71
2022-09-23T02:24:56.221Z,55.71
2022-09-23T02:25:56.259Z,55.71
2022-09-23T02:26:56.269Z,55.71
2022-09-23T02:27:56.287Z,55.71
2022-09-23T02:28:56.560Z,55.71
2022-09-23T02:29:56.331Z,55.71
2022-09-23T02:30:56.332Z,55.71
2022-09-23T02:31:56.424Z,55.71
2022-09-23T02:32:56.365Z,55.71
2022-09-23T02:33:56.389Z,55.71
2022-09-23T02:34:56.417Z,55.71
2022-09-23T02:35:56.444Z,55.71
2022-09-23T02:36:56.468Z,55.71
2022-09-23T02:37:56.519Z,55.61
2022-09-23T02:38:57.740Z,55.71
2022-09-23T02:39:56.534Z,55.61
2022-09-23T02:40:56.553Z,55.71
2022-09-23T02:41:56.568Z,55.71
2022-09-23T02:42:56.580Z,55.71
2022-09-23T02:43:56.588Z,55.71
2022-09-23T02:44:56.607Z,55.71
2022-09-23T02:45:56.672Z,55.71
2022-09-23T02:46:56.570Z,55.81
2022-09-23T02:47:56.597Z,55.71
2022-09-23T02:48:56.615Z,55.71
2022-09-23T02:49:56.628Z,55.71
2022-09-23T02:50:56.650Z,55.81
2022-09-23T02:51:56.673Z,55.71
2022-09-23T02:52:56.714Z,55.71
2022-09-23T02:53:56.733Z,55.71
2022-09-23T02:54:56.743Z,55.71
2022-09-23T02:55:56.763Z,55.71
2022-09-23T02:56:56.790Z,55.71
2022-09-23T02:57:56.816Z,55.71
2022-09-23T02:58:56.856Z,55.71
2022-09-23T02:59:56.881Z,55.71
2022-09-23T03:00:56.968Z,55.71
2022-09-23T03:01:57.067Z,55.71
2022-09-23T03:02:57.154Z,55.81
2022-09-23T03:03:56.929Z,55.81
2022-09-23T03:04:56.953Z,55.81
2022-09-23T03:05:56.971Z,55.71
2022-09-23T03:06:57.016Z,55.71
2022-09-23T03:07:56.988Z,55.71
2022-09-23T03:08:57.001Z,55.71
2022-09-23T03:09:57.031Z,55.81
2022-09-23T03:10:57.045Z,55.81
2022-09-23T03:11:57.069Z,55.71
2022-09-23T03:12:57.113Z,55.81
2022-09-23T03:13:57.080Z,55.81
2022-09-23T03:14:57.092Z,55.71
2022-09-23T03:15:57.109Z,55.81
2022-09-23T03:16:57.124Z,55.71
2022-09-23T03:17:57.187Z,55.81
2022-09-23T03:18:57.151Z,55.81
2022-09-23T03:19:57.161Z,55.81
2022-09-23T03:20:57.195Z,55.81
2022-09-23T03:21:57.226Z,55.81
2022-09-23T03:22:57.244Z,55.81
2022-09-23T03:23:57.224Z,55.81
2022-09-23T03:24:57.220Z,55.81
2022-09-23T03:25:57.255Z,55.81
2022-09-23T03:26:57.269Z,55.81
2022-09-23T03:27:57.303Z,55.81
2022-09-23T03:28:57.291Z,55.71
2022-09-23T03:29:57.326Z,55.81
2022-09-23T03:30:57.349Z,55.81
2022-09-23T03:31:57.439Z,55.81
2022-09-23T03:32:57.364Z,55.83
2022-09-23T03:33:57.388Z,55.94
2022-09-23T03:34:57.382Z,55.81
2022-09-23T03:35:57.438Z,55.81
2022-09-23T03:36:57.440Z,55.83
2022-09-23T03:37:57.416Z,55.83
2022-09-23T03:38:57.428Z,55.83
2022-09-23T03:39:57.460Z,55.81
2022-09-23T03:40:57.441Z,55.83
2022-09-23T03:41:57.483Z,55.94
2022-09-23T03:42:57.473Z,55.94
2022-09-23T03:43:57.486Z,55.94
2022-09-23T03:44:57.518Z,55.83
2022-09-23T03:45:57.722Z,55.83
2022-09-23T03:46:57.560Z,55.83
2022-09-23T03:47:57.583Z,55.94
2022-09-23T03:48:57.591Z,55.83
2022-09-23T03:49:57.655Z,55.83
2022-09-23T03:50:57.625Z,55.83
2022-09-23T03:51:57.620Z,55.83
2022-09-23T03:52:57.635Z,55.94
2022-09-23T03:53:57.652Z,55.83
2022-09-23T03:54:57.695Z,55.83
2022-09-23T03:55:57.706Z,55.83
2022-09-23T03:56:57.756Z,55.83
2022-09-23T03:57:57.779Z,55.94
2022-09-23T03:58:57.796Z,55.83
2022-09-23T03:59:57.818Z,55.94
2022-09-23T04:00:57.887Z,55.94
2022-09-23T04:01:57.901Z,55.94
2022-09-23T04:02:57.884Z,55.94
2022-09-23T04:03:57.840Z,55.94
2022-09-23T04:04:57.839Z,55.83
2022-09-23T04:05:57.985Z,55.83
2022-09-23T04:06:57.913Z,55.83
2022-09-23T04:07:57.922Z,55.94
2022-09-23T04:08:57.952Z,55.83
2022-09-23T04:09:57.965Z,55.83
2022-09-23T04:10:58.000Z,55.94
2022-09-23T04:11:58.018Z,55.94
2022-09-23T04:12:58.047Z,55.94
2022-09-23T04:13:58.074Z,55.83
2022-09-23T04:14:58.108Z,55.83
2022-09-23T04:15:58.157Z,55.83
2022-09-23T04:16:58.131Z,55.83
2022-09-23T04:17:58.142Z,55.94
2022-09-23T04:18:58.157Z,55.94
2022-09-23T04:19:58.178Z,55.94
2022-09-23T04:20:58.196Z,55.94
2022-09-23T04:21:58.237Z,56.04
2022-09-23T04:22:58.252Z,56.04
2022-09-23T04:23:58.216Z,56.04
2022-09-23T04:24:58.244Z,55.94
2022-09-23T04:25:58.261Z,55.94
2022-09-23T04:26:58.305Z,55.94
2022-09-23T04:27:58.276Z,55.94
2022-09-23T04:28:58.285Z,55.94
2022-09-23T04:29:58.344Z,55.94
2022-09-23T04:30:58.290Z,55.94
2022-09-23T04:31:58.352Z,55.94
2022-09-23T04:32:58.343Z,55.94
2022-09-23T04:33:58.375Z,56.04
2022-09-23T04:34:58.360Z,55.94
2022-09-23T04:35:58.373Z,56.04
2022-09-23T04:36:58.399Z,56.04
2022-09-23T04:37:58.439Z,55.94
2022-09-23T04:38:58.503Z,55.94
2022-09-23T04:39:58.453Z,55.94
2022-09-23T04:40:58.432Z,55.94
2022-09-23T04:41:58.466Z,55.94
2022-09-23T04:42:58.470Z,55.94
2022-09-23T04:43:58.523Z,55.94
2022-09-23T04:44:58.532Z,55.94
2022-09-23T04:45:58.514Z,55.94
2022-09-23T04:46:58.648Z,56.04
2022-09-23T04:47:58.558Z,55.94
2022-09-23T04:48:58.577Z,56.04
2022-09-23T04:49:59.984Z,56.04
2022-09-23T04:50:58.621Z,56.04
2022-09-23T04:51:58.642Z,56.04
2022-09-23T04:52:58.677Z,56.04
2022-09-23T04:53:58.675Z,56.04
2022-09-23T04:54:58.673Z,56.04
2022-09-23T04:55:58.684Z,56.04
2022-09-23T04:56:58.690Z,56.04
2022-09-23T04:57:58.731Z,56.04
2022-09-23T04:58:58.696Z,56.04
2022-09-23T04:59:58.726Z,56.04
2022-09-23T05:02:24.791Z,56.04
2022-09-23T05:03:24.699Z,55.94
2022-09-23T05:04:24.727Z,56.04
2022-09-23T05:05:24.753Z,55.94
2022-09-23T05:06:24.773Z,56.04
2022-09-23T05:07:24.801Z,56.04
2022-09-23T05:08:24.863Z,56.04
2022-09-23T05:09:24.892Z,56.04
2022-09-23T05:10:24.909Z,56.04
2022-09-23T05:11:24.879Z,56.04
2022-09-23T05:12:24.910Z,56.04
2022-09-23T05:13:24.932Z,56.04
2022-09-23T05:14:24.909Z,56.04
2022-09-23T05:15:24.932Z,56.04
2022-09-23T05:16:24.987Z,56.04
2022-09-23T05:17:24.929Z,56.04
2022-09-23T05:18:24.947Z,56.04
2022-09-23T05:19:24.973Z,56.04
2022-09-23T05:20:24.960Z,56.04
2022-09-23T05:21:24.989Z,56.04
2022-09-23T05:22:24.969Z,56.04
2022-09-23T05:23:25.006Z,56.04
2022-09-23T05:24:25.021Z,56.04
2022-09-23T05:25:25.070Z,56.04
2022-09-23T05:26:25.081Z,56.04
2022-09-23T05:27:25.057Z,55.94
2022-09-23T05:28:25.084Z,55.94
2022-09-23T05:29:25.101Z,55.94
2022-09-23T05:30:25.112Z,56.04
2022-09-23T05:31:25.190Z,56.04
2022-09-23T05:32:25.133Z,55.94
2022-09-23T05:33:25.146Z,55.94
2022-09-23T05:34:25.140Z,55.94
2022-09-23T05:35:25.175Z,55.94
2022-09-23T05:36:25.199Z,55.94
2022-09-23T05:37:25.198Z,55.94
2022-09-23T05:38:25.264Z,55.94
2022-09-23T05:39:25.240Z,55.83
2022-09-23T05:40:25.332Z,55.94
2022-09-23T05:41:25.299Z,55.94
2022-09-23T05:42:25.297Z,55.94
2022-09-23T05:43:25.255Z,55.83
2022-09-23T05:44:25.301Z,55.83
2022-09-23T05:45:26.910Z,55.83
2022-09-23T05:46:25.313Z,55.74
2022-09-23T05:47:25.286Z,55.83
2022-09-23T05:48:25.321Z,55.83
2022-09-23T05:49:37.907Z,55.83
2022-09-23T05:50:25.357Z,55.74
2022-09-23T05:51:28.848Z,55.83
2022-09-23T05:52:25.398Z,55.83
2022-09-23T05:53:25.416Z,55.83
2022-09-23T05:54:25.450Z,55.74
2022-09-23T05:55:25.431Z,55.74
2022-09-23T05:56:25.463Z,55.74
2022-09-23T05:57:25.498Z,55.74
2022-09-23T05:58:25.512Z,55.74
2022-09-23T05:59:25.502Z,55.74
2022-09-23T06:00:25.512Z,55.63
2022-09-23T06:01:25.602Z,55.63
2022-09-23T06:02:25.588Z,55.63
2022-09-23T06:03:25.669Z,55.63
2022-09-23T06:04:25.600Z,55.63
2022-09-23T06:05:25.716Z,55.63
2022-09-23T06:06:25.633Z,55.54
2022-09-23T06:07:25.599Z,55.63
2022-09-23T06:08:25.603Z,55.54
2022-09-23T06:09:25.614Z,55.54
2022-09-23T06:10:26.441Z,55.54
2022-09-23T06:11:25.693Z,55.54
2022-09-23T06:12:25.621Z,55.54
2022-09-23T06:13:25.681Z,55.54
2022-09-23T06:14:25.770Z,55.54
2022-09-23T06:15:25.743Z,55.54
2022-09-23T06:16:25.815Z,55.41
2022-09-23T06:17:25.733Z,55.41
2022-09-23T06:18:25.794Z,55.31
2022-09-23T06:19:25.752Z,55.31
2022-09-23T06:20:25.735Z,55.41
2022-09-23T06:21:25.711Z,55.43
2022-09-23T06:22:25.760Z,55.43
2022-09-23T06:23:26.718Z,55.41
2022-09-23T06:24:30.861Z,55.41
2022-09-23T06:25:25.820Z,55.41
2022-09-23T06:26:25.786Z,55.41
2022-09-23T06:27:25.824Z,55.41
2022-09-23T06:28:25.868Z,55.41
2022-09-23T06:29:25.862Z,55.31
2022-09-23T06:30:25.877Z,55.31
2022-09-23T06:31:25.968Z,55.31
2022-09-23T06:32:25.954Z,55.31
2022-09-23T06:33:35.074Z,55.21
2022-09-23T06:34:25.905Z,55.21
2022-09-23T06:35:27.657Z,55.31
2022-09-23T06:36:41.204Z,55.31
2022-09-23T06:37:25.916Z,55.21
2022-09-23T06:38:25.951Z,55.21
2022-09-23T06:39:26.142Z,55.21
2022-09-23T06:40:26.042Z,55.21
2022-09-23T06:41:26.012Z,55.21
2022-09-23T06:42:26.038Z,55.21
2022-09-23T06:43:26.066Z,55.21
2022-09-23T06:44:26.089Z,55.21
2022-09-23T06:45:26.090Z,55.21
2022-09-23T06:46:26.147Z,55.21
2022-09-23T06:47:26.103Z,55.11
2022-09-23T06:48:26.125Z,55.11
2022-09-23T06:49:26.168Z,55.11
2022-09-23T06:50:26.312Z,55.11
2022-09-23T06:51:26.201Z,55.11
2022-09-23T06:52:26.192Z,55.11
2022-09-23T06:53:26.172Z,55.11
2022-09-23T06:54:26.225Z,55.11
2022-09-23T06:55:26.229Z,55.11
2022-09-23T06:56:26.210Z,55.11
2022-09-23T06:57:26.225Z,55.11
2022-09-23T06:58:26.258Z,55.11
2022-09-23T06:59:26.260Z,55.11
2022-09-23T07:00:26.297Z,55.00
2022-09-23T07:01:26.437Z,55.11
2022-09-23T07:02:26.344Z,55.11
2022-09-23T07:03:26.226Z,55.00
2022-09-23T07:04:29.369Z,55.00
2022-09-23T07:05:26.314Z,55.11
2022-09-23T07:06:26.267Z,55.00
2022-09-23T07:07:26.329Z,55.00
2022-09-23T07:08:26.344Z,55.00
2022-09-23T07:09:26.319Z,55.00
2022-09-23T07:10:26.345Z,54.91
2022-09-23T07:11:26.374Z,54.91
2022-09-23T07:12:26.394Z,54.91
2022-09-23T07:13:26.365Z,54.88
2022-09-23T07:14:26.471Z,54.78
2022-09-23T07:15:26.424Z,54.78
2022-09-23T07:16:26.559Z,54.78
2022-09-23T07:17:26.580Z,54.78
2022-09-23T07:18:26.483Z,54.78
2022-09-23T07:19:26.505Z,54.78
2022-09-23T07:20:26.602Z,54.78
2022-09-23T07:21:26.468Z,54.78
2022-09-23T07:22:26.480Z,54.78
2022-09-23T07:23:26.494Z,54.78
2022-09-23T07:24:26.519Z,54.78
2022-09-23T07:25:26.596Z,54.68
2022-09-23T07:26:26.539Z,54.68
2022-09-23T07:27:26.522Z,54.68
2022-09-23T07:28:26.537Z,54.78
2022-09-23T07:29:26.553Z,54.68
2022-09-23T07:30:26.646Z,54.68
2022-09-23T07:31:38.577Z,54.58
2022-09-23T07:32:27.583Z,54.58
2022-09-23T07:33:32.299Z,54.48
2022-09-23T07:34:26.666Z,54.48
2022-09-23T07:35:26.636Z,54.48
2022-09-23T07:36:26.667Z,54.38
2022-09-23T07:37:26.678Z,54.35
2022-09-23T07:38:26.715Z,54.25
2022-09-23T07:39:26.723Z,54.15
2022-09-23T07:40:26.796Z,54.15
2022-09-23T07:41:26.777Z,54.15
2022-09-23T07:42:26.763Z,54.05
2022-09-23T07:43:26.779Z,54.05
2022-09-23T07:44:26.823Z,53.85
2022-09-23T07:45:26.796Z,53.75
2022-09-23T07:46:26.915Z,53.55
2022-09-23T07:47:26.806Z,53.45
2022-09-23T07:48:30.658Z,53.45
2022-09-23T07:49:26.828Z,53.32
2022-09-23T07:50:26.822Z,53.22
2022-09-23T07:51:26.847Z,53.12
2022-09-23T07:52:26.878Z,53.12
2022-09-23T07:53:26.861Z,53.02
2022-09-23T07:54:26.864Z,52.92
2022-09-23T07:55:26.884Z,52.72
2022-09-23T07:56:26.907Z,52.72
2022-09-23T07:57:26.965Z,52.82
2022-09-23T07:58:26.929Z,52.92
2022-09-23T07:59:26.932Z,53.02
2022-09-23T08:00:26.955Z,53.22
2022-09-23T08:01:27.043Z,53.00
2022-09-23T08:02:27.001Z,53.09
2022-09-23T08:03:26.966Z,53.00
2022-09-23T08:04:26.996Z,53.00
2022-09-23T08:05:27.063Z,53.09
2022-09-23T08:06:27.016Z,53.09
2022-09-23T08:07:27.031Z,53.09
2022-09-23T08:08:27.062Z,53.09
2022-09-23T08:09:27.119Z,52.89
2022-09-23T08:10:27.061Z,52.69
2022-09-23T08:11:27.048Z,52.69
2022-09-23T08:12:27.072Z,52.59
2022-09-23T08:13:27.078Z,52.49
2022-09-23T08:14:27.106Z,52.49
2022-09-23T08:15:27.215Z,52.49
2022-09-23T08:16:27.289Z,52.49
2022-09-23T08:17:27.306Z,52.49
2022-09-23T08:18:27.170Z,52.49
2022-09-23T08:19:27.175Z,52.49
2022-09-23T08:20:27.195Z,52.49
2022-09-23T08:21:27.220Z,52.37
2022-09-23T08:22:27.178Z,52.37
2022-09-23T08:23:27.178Z,52.37
2022-09-23T08:24:27.207Z,52.37
2022-09-23T08:25:27.263Z,52.37
2022-09-23T08:26:27.229Z,52.37
2022-09-23T08:27:27.246Z,52.37
2022-09-23T08:28:27.301Z,52.26
2022-09-23T08:29:27.258Z,52.37
2022-09-23T08:30:27.268Z,52.37
2022-09-23T08:31:27.354Z,52.26
2022-09-23T08:32:27.317Z,52.37
2022-09-23T08:33:27.373Z,52.26
2022-09-23T08:34:27.359Z,52.26
2022-09-23T08:35:27.326Z,52.26
2022-09-23T08:36:27.350Z,52.26
2022-09-23T08:37:27.370Z,52.26
2022-09-23T08:38:27.338Z,52.17
2022-09-23T08:39:27.332Z,52.17
2022-09-23T08:40:27.430Z,52.17
2022-09-23T08:41:27.365Z,52.17
2022-09-23T08:42:27.397Z,52.17
2022-09-23T08:43:27.410Z,52.17
2022-09-23T08:44:27.404Z,52.17
2022-09-23T08:45:27.417Z,52.17
2022-09-23T08:46:27.492Z,52.17
2022-09-23T08:47:27.467Z,52.17
2022-09-23T08:48:27.452Z,52.17
2022-09-23T08:49:27.426Z,52.26
2022-09-23T08:50:27.459Z,52.26
2022-09-23T08:51:27.474Z,52.26
2022-09-23T08:52:27.500Z,52.26
2022-09-23T08:53:28.423Z,52.26
2022-09-23T08:54:27.526Z,52.26
2022-09-23T08:55:27.539Z,52.26
2022-09-23T08:56:27.567Z,52.26
2022-09-23T08:57:27.590Z,52.26
2022-09-23T08:58:27.705Z,52.26
2022-09-23T08:59:27.615Z,52.26
2022-09-23T09:00:27.653Z,52.26
2022-09-23T09:01:27.716Z,52.26
2022-09-23T09:02:27.678Z,52.26
2022-09-23T09:03:27.620Z,52.26
2022-09-23T09:04:27.598Z,52.37
2022-09-23T09:05:27.612Z,52.37
2022-09-23T09:06:27.614Z,52.26
2022-09-23T09:07:42.995Z,52.26
2022-09-23T09:08:27.636Z,52.26
2022-09-23T09:09:27.654Z,52.26
2022-09-23T09:10:27.662Z,52.26
2022-09-23T09:11:27.690Z,52.26
2022-09-23T09:12:27.697Z,52.26
2022-09-23T09:13:27.741Z,52.24
2022-09-23T09:14:27.722Z,52.24
2022-09-23T09:15:27.809Z,52.24
2022-09-23T09:16:55.458Z,52.24
2022-09-23T09:17:31.691Z,52.24
2022-09-23T09:18:27.820Z,52.24
2022-09-23T09:19:27.836Z,52.34
2022-09-23T09:20:27.814Z,52.24
2022-09-23T09:21:27.864Z,52.24
2022-09-23T09:22:27.895Z,52.24
2022-09-23T09:23:27.960Z,52.24
2022-09-23T09:24:27.892Z,52.24
2022-09-23T09:25:32.072Z,52.34
2022-09-23T09:26:27.878Z,52.34
2022-09-23T09:27:27.899Z,52.24
2022-09-23T09:28:27.933Z,52.24
2022-09-23T09:29:35.280Z,52.24
2022-09-23T09:30:27.961Z,52.24
2022-09-23T09:31:28.081Z,52.22
2022-09-23T09:32:28.009Z,52.22
2022-09-23T09:33:28.031Z,52.32
2022-09-23T09:34:28.011Z,52.32
2022-09-23T09:35:28.058Z,52.42
2022-09-23T09:36:30.654Z,52.42
2022-09-23T09:37:28.088Z,52.52
2022-09-23T09:38:28.129Z,52.52
2022-09-23T09:39:28.115Z,52.52
2022-09-23T09:40:28.198Z,52.52
2022-09-23T09:41:28.168Z,52.62
2022-09-23T09:42:28.164Z,52.52
2022-09-23T09:43:28.240Z,52.52
2022-09-23T09:44:28.192Z,52.52
2022-09-23T09:45:28.185Z,52.52
2022-09-23T09:46:28.260Z,52.49
2022-09-23T09:47:28.253Z,52.49
2022-09-23T09:48:28.246Z,52.49
2022-09-23T09:49:28.227Z,52.49
2022-09-23T09:50:28.213Z,52.49
2022-09-23T09:51:28.245Z,52.49
2022-09-23T09:52:28.251Z,52.49
2022-09-23T09:53:28.202Z,52.49
2022-09-23T09:54:28.252Z,52.49
2022-09-23T09:55:28.203Z,52.49
2022-09-23T09:56:28.234Z,52.59
2022-09-23T09:57:32.178Z,52.59
2022-09-23T09:58:28.274Z,52.59
2022-09-23T09:59:28.270Z,52.59
2022-09-23T10:00:28.320Z,52.59
2022-09-23T10:01:28.371Z,52.59
2022-09-23T10:02:28.277Z,52.59
2022-09-23T10:03:28.330Z,52.69
2022-09-23T10:04:28.385Z,52.67
2022-09-23T10:05:28.314Z,52.80
2022-09-23T10:06:28.343Z,52.57
2022-09-23T10:07:28.357Z,52.57
2022-09-23T10:08:28.393Z,52.67
2022-09-23T10:09:28.396Z,52.69
2022-09-23T10:10:32.936Z,52.69
2022-09-23T10:11:28.391Z,52.80
2022-09-23T10:12:28.404Z,52.80
2022-09-23T10:13:28.429Z,52.80
2022-09-23T10:14:28.387Z,52.80
2022-09-23T10:15:28.413Z,52.89
2022-09-23T10:16:28.466Z,52.89
2022-09-23T10:17:28.428Z,52.89
2022-09-23T10:18:28.405Z,52.89
2022-09-23T10:19:28.428Z,52.89
2022-09-23T10:20:28.436Z,53.00
2022-09-23T10:21:28.433Z,53.00
2022-09-23T10:22:28.460Z,53.00
2022-09-23T10:23:28.486Z,53.00
2022-09-23T10:24:28.518Z,53.00
2022-09-23T10:25:28.501Z,53.00
2022-09-23T10:26:28.528Z,53.00
2022-09-23T10:27:28.527Z,53.00
2022-09-23T10:28:28.571Z,53.09
2022-09-23T10:29:28.609Z,53.09
2022-09-23T10:30:28.630Z,53.00
2022-09-23T10:31:28.585Z,53.00
2022-09-23T10:32:28.595Z,53.12
2022-09-23T10:33:28.726Z,53.12
2022-09-23T10:34:28.633Z,53.12
2022-09-23T10:35:28.614Z,53.12
2022-09-23T10:36:28.646Z,53.00
2022-09-23T10:37:28.625Z,53.00
2022-09-23T10:38:28.681Z,53.09
2022-09-23T10:39:28.683Z,53.00
2022-09-23T10:40:28.703Z,53.12
2022-09-23T10:41:29.038Z,53.02
2022-09-23T10:42:28.708Z,53.00
2022-09-23T10:43:28.746Z,52.89
2022-09-23T10:44:28.697Z,52.89
2022-09-23T10:45:28.778Z,52.89
2022-09-23T10:46:28.830Z,52.80
2022-09-23T10:47:28.754Z,52.69
2022-09-23T10:48:28.725Z,52.69
2022-09-23T10:49:28.785Z,52.69
2022-09-23T10:50:28.756Z,52.57
2022-09-23T10:51:31.770Z,52.57
2022-09-23T10:52:28.739Z,52.57
2022-09-23T10:53:28.757Z,52.47
2022-09-23T10:54:28.810Z,52.47
2022-09-23T10:55:28.777Z,52.47
2022-09-23T10:56:28.868Z,52.37
2022-09-23T10:57:35.976Z,52.47
2022-09-23T10:58:28.854Z,52.47
2022-09-23T10:59:28.875Z,52.47
2022-09-23T11:00:28.862Z,52.44
2022-09-23T11:01:28.910Z,52.34
2022-09-23T11:02:28.874Z,52.24
2022-09-23T11:03:28.849Z,52.24
2022-09-23T11:04:28.997Z,52.34
2022-09-23T11:05:28.898Z,52.14
2022-09-23T11:06:28.911Z,52.14
2022-09-23T11:07:28.908Z,52.14
2022-09-23T11:08:28.942Z,52.14
2022-09-23T11:09:29.493Z,52.04
2022-09-23T11:10:45.369Z,52.14
2022-09-23T11:11:29.020Z,52.14
2022-09-23T11:12:29.030Z,52.14
2022-09-23T11:13:29.081Z,52.14
2022-09-23T11:14:29.069Z,52.14
2022-09-23T11:15:29.110Z,52.14
2022-09-23T11:16:29.206Z,52.14
2022-09-23T11:17:29.134Z,52.14
2022-09-23T11:18:29.139Z,52.24
2022-09-23T11:19:29.211Z,52.24
2022-09-23T11:20:29.168Z,52.24
2022-09-23T11:21:29.220Z,52.24
2022-09-23T11:22:29.247Z,52.14
2022-09-23T11:23:29.238Z,52.14
2022-09-23T11:24:29.263Z,52.14
2022-09-23T11:25:29.285Z,52.14
2022-09-23T11:26:33.141Z,52.24
2022-09-23T11:27:29.373Z,52.24
2022-09-23T11:28:29.386Z,52.24
2022-09-23T11:29:29.396Z,52.24
2022-09-23T11:30:29.544Z,52.14
2022-09-23T11:31:29.412Z,52.04
2022-09-23T11:32:29.452Z,52.14
2022-09-23T11:33:29.503Z,52.14
2022-09-23T11:34:29.468Z,52.14
2022-09-23T11:35:29.455Z,52.14
2022-09-23T11:36:29.473Z,51.94
2022-09-23T11:37:29.525Z,51.94
2022-09-23T11:38:29.505Z,51.94
2022-09-23T11:39:29.509Z,51.84
2022-09-23T11:40:29.593Z,51.84
2022-09-23T11:41:29.526Z,51.74
2022-09-23T11:42:29.541Z,51.74
2022-09-23T11:43:29.572Z,51.74
2022-09-23T11:44:29.609Z,51.72
2022-09-23T11:45:29.667Z,51.72
2022-09-23T11:46:29.738Z,51.72
2022-09-23T11:47:29.644Z,51.62
2022-09-23T11:48:29.623Z,51.72
2022-09-23T11:49:29.676Z,51.62
2022-09-23T11:50:29.674Z,51.72
2022-09-23T11:51:29.691Z,51.62
2022-09-23T11:52:29.701Z,51.72
2022-09-23T11:53:29.735Z,51.62
2022-09-23T11:54:29.718Z,51.52
2022-09-23T11:55:29.744Z,51.52
2022-09-23T11:56:35.426Z,51.52
2022-09-23T11:57:39.095Z,51.52
2022-09-23T11:58:29.880Z,51.52
2022-09-23T11:59:38.840Z,51.52
2022-09-23T12:00:29.836Z,51.52
2022-09-23T12:01:36.473Z,51.52
2022-09-23T12:02:31.223Z,51.52
2022-09-23T12:03:41.626Z,51.52
2022-09-23T12:04:30.499Z,51.52
2022-09-23T12:05:30.060Z,51.52
2022-09-23T12:06:29.912Z,51.52
2022-09-23T12:07:29.926Z,51.52
2022-09-23T12:08:29.948Z,51.52
2022-09-23T12:09:53.829Z,51.52
2022-09-23T12:10:30.001Z,51.52
2022-09-23T12:11:30.032Z,51.42
2022-09-23T12:12:30.019Z,51.42
2022-09-23T12:13:30.048Z,51.42
2022-09-23T12:14:30.065Z,51.42
2022-09-23T12:15:30.070Z,51.42
2022-09-23T12:16:30.180Z,51.42
2022-09-23T12:17:30.093Z,51.42
2022-09-23T12:18:30.114Z,51.42
2022-09-23T12:19:30.115Z,51.42
2022-09-23T12:20:30.125Z,51.32
2022-09-23T12:21:49.204Z,51.32
2022-09-23T12:22:30.159Z,51.42
2022-09-23T12:23:30.199Z,51.32
2022-09-23T12:24:30.214Z,51.32
2022-09-23T12:25:30.240Z,51.32
2022-09-23T12:26:30.276Z,51.32
2022-09-23T12:27:30.299Z,51.32
2022-09-23T12:28:30.326Z,51.22
2022-09-23T12:29:30.358Z,51.22
2022-09-23T12:30:30.464Z,51.22
2022-09-23T12:31:30.408Z,51.22
2022-09-23T12:32:30.427Z,51.12
2022-09-23T12:33:30.474Z,51.12
2022-09-23T12:34:30.468Z,51.12
2022-09-23T12:35:30.490Z,51.12
2022-09-23T12:36:30.465Z,51.12
2022-09-23T12:37:30.521Z,51.12
2022-09-23T12:38:30.517Z,51.12
2022-09-23T12:39:30.565Z,51.12
2022-09-23T12:40:30.626Z,51.12
2022-09-23T12:41:30.549Z,51.02
2022-09-23T12:42:31.445Z,51.02
2022-09-23T12:43:30.556Z,51.02
2022-09-23T12:44:30.603Z,51.02
2022-09-23T12:45:30.612Z,51.02
2022-09-23T12:46:30.571Z,51.02
2022-09-23T12:47:30.593Z,50.99
2022-09-23T12:48:30.598Z,50.99
2022-09-23T12:49:30.590Z,50.99
2022-09-23T12:50:30.619Z,50.89
2022-09-23T12:51:30.635Z,50.89
2022-09-23T12:52:30.628Z,50.89
2022-09-23T12:53:30.720Z,50.89
2022-09-23T12:54:30.652Z,50.89